Flight Track Log - Related Links

Times and Time Zones

All times are in EDT time to prevent confusion due to time zone crossing. See the CCA4126 flight status page for this flight to view local times or setup timezone preferences in your user account.

Time Position Orientation Groundspeed Altitude Reporting Facility
EDT Latitude Longitude Course Direction KTS MPH feet Rate Location/Type
Sat 09:53:32 PM 29.3946 91.0764 56° Northeast  Level Estimated
Sat 09:54:32 PM 29.4576 91.1839 56° Northeast  Level Estimated
Sat 09:55:32 PM 29.5205 91.2915 56° Northeast  Level Estimated
Sat 09:56:32 PM 29.5833 91.3992 56° Northeast  Level Estimated
Sat 09:57:32 PM 29.6460 91.5071 56° Northeast  Level Estimated
Sat 09:58:32 PM 29.7087 91.6151 56° Northeast  Level Estimated
Sat 09:59:32 PM 29.7713 91.7232 56° Northeast  Level Estimated
Sat 10:00:32 PM 29.8337 91.8315 56° Northeast  Level Estimated
Sat 10:01:32 PM 29.8961 91.9399 56° Northeast  Level Estimated
Sat 10:02:32 PM 29.9584 92.0484 57° Northeast  Level Estimated
Sat 10:03:32 PM 30.0207 92.1571 57° Northeast  Level Estimated
Sat 10:04:32 PM 30.0828 92.2659 57° Northeast  Level Estimated
Sat 10:05:32 PM 30.1448 92.3748 57° Northeast  Level Estimated
Sat 10:06:32 PM 30.2068 92.4839 57° Northeast  Level Estimated
Sat 10:07:32 PM 30.2686 92.5931 57° Northeast  Level Estimated
Sat 10:08:32 PM 30.3304 92.7025 57° Northeast  Level Estimated
Sat 10:09:32 PM 30.3921 92.8120 57° Northeast  Level Estimated
Sat 10:10:32 PM 30.4536 92.9216 57° Northeast  Level Estimated
Sat 10:11:32 PM 30.5151 93.0314 57° Northeast  Level Estimated
Sat 10:12:32 PM 30.5765 93.1413 57° Northeast  Level Estimated
Sat 10:13:32 PM 30.6378 93.2513 57° Northeast  Level Estimated
Sat 10:14:32 PM 30.6991 93.3615 57° Northeast  Level Estimated
Sat 10:15:32 PM 30.7602 93.4718 57° Northeast  Level Estimated
Sat 10:16:32 PM 30.8212 93.5823 57° Northeast  Level Estimated
Sat 10:17:32 PM 30.8821 93.6929 57° Northeast  Level Estimated
Sat 10:18:32 PM 30.9430 93.8037 57° Northeast  Level Estimated
Sat 10:19:32 PM 31.0037 93.9146 57° Northeast  Level Estimated
Sat 10:20:32 PM 31.0644 94.0256 58° Northeast  Level Estimated
Sat 10:21:32 PM 31.1249 94.1368 58° Northeast  Level Estimated
Sat 10:22:32 PM 31.1854 94.2481 58° Northeast  Level Estimated
Sat 10:23:32 PM 31.2457 94.3595 58° Northeast  Level Estimated
Sat 10:24:32 PM 31.3060 94.4711 58° Northeast  Level Estimated
Sat 10:25:32 PM 31.3662 94.5829 58° Northeast  Level Estimated
Sat 10:26:32 PM 31.4262 94.6948 58° Northeast  Level Estimated
Sat 10:27:32 PM 31.4862 94.8068 58° Northeast  Level Estimated
Sat 10:28:32 PM 31.5461 94.9190 58° Northeast  Level Estimated
Sat 10:29:32 PM 31.6059 95.0313 58° Northeast  Level Estimated
Sat 10:30:32 PM 31.6655 95.1437 58° Northeast  Level Estimated
Sat 10:31:32 PM 31.7251 95.2563 58° Northeast  Level Estimated
Sat 10:32:32 PM 31.7846 95.3691 58° Northeast  Level Estimated
Sat 10:33:32 PM 31.8440 95.4820 58° Northeast  Level Estimated
Sat 10:34:32 PM 31.9033 95.5950 58° Northeast  Level Estimated
Sat 10:35:32 PM 31.9624 95.7082 58° Northeast  Level Estimated
Sat 10:36:32 PM 32.0215 95.8215 58° Northeast  Level Estimated
Sat 10:37:32 PM 32.0805 95.9350 59° Northeast  Level Estimated
Sat 10:38:32 PM 32.1394 96.0486 59° Northeast  Level Estimated
Sat 10:39:32 PM 32.1982 96.1624 59° Northeast  Level Estimated
Sat 10:40:32 PM 32.2568 96.2763 59° Northeast  Level Estimated
Sat 10:41:32 PM 32.3154 96.3904 59° Northeast  Level Estimated
Sat 10:42:32 PM 32.3739 96.5046 59° Northeast  Level Estimated
Sat 10:43:32 PM 32.4322 96.6190 59° Northeast  Level Estimated
Sat 10:44:32 PM 32.4905 96.7335 59° Northeast  Level Estimated
Sat 10:45:32 PM 32.5487 96.8481 59° Northeast  Level Estimated
Sat 10:46:32 PM 32.6067 96.9629 59° Northeast  Level Estimated
Sat 10:47:32 PM 32.6647 97.0779 59° Northeast  Level Estimated
Sat 10:48:32 PM 32.7225 97.1930 59° Northeast  Level Estimated
Sat 10:49:32 PM 32.7803 97.3082 59° Northeast  Level Estimated
Sat 10:50:32 PM 32.8379 97.4236 59° Northeast  Level Estimated
Sat 10:51:32 PM 32.8954 97.5392 59° Northeast  Level Estimated
Sat 10:52:32 PM 32.9528 97.6549 59° Northeast  Level Estimated
Sat 10:53:32 PM 33.0102 97.7707 59° Northeast  Level Estimated
Sat 10:54:32 PM 33.0674 97.8867 60° Northeast  Level Estimated
Sat 10:55:32 PM 33.1245 98.0029 60° Northeast  Level Estimated
Sat 10:56:32 PM 33.1815 98.1192 60° Northeast  Level Estimated
Sat 10:57:32 PM 33.2383 98.2356 60° Northeast  Level Estimated
Sat 10:58:32 PM 33.2951 98.3522 60° Northeast  Level Estimated
Sat 10:59:32 PM 33.3518 98.4690 60° Northeast  Level Estimated
Sat 11:00:32 PM 33.4084 98.5859 60° Northeast  Level Estimated
Sat 11:01:32 PM 33.4648 98.7029 60° Northeast  Level Estimated
Sat 11:02:32 PM 33.5211 98.8202 60° Northeast  Level Estimated
Sat 11:03:32 PM 33.5774 98.9375 60° Northeast  Level Estimated
Sat 11:04:32 PM 33.6335 99.0551 60° Northeast  Level Estimated
Sat 11:05:32 PM 33.6895 99.1727 60° Northeast  Level Estimated
Sat 11:06:32 PM 33.7454 99.2906 60° Northeast  Level Estimated
Sat 11:07:32 PM 33.8012 99.4085 60° Northeast  Level Estimated
Sat 11:08:32 PM 33.8569 99.5267 60° Northeast  Level Estimated
Sat 11:09:32 PM 33.9124 99.6450 61° Northeast  Level Estimated
Sat 11:10:32 PM 33.9679 99.7634 61° Northeast  Level Estimated
Sat 11:11:32 PM 34.0232 99.8820 61° Northeast  Level Estimated
Sat 11:12:32 PM 34.0784 100.0007 61° Northeast  Level Estimated
Sat 11:13:32 PM 34.1335 100.1197 61° Northeast  Level Estimated
Sat 11:14:32 PM 34.1885 100.2387 61° Northeast  Level Estimated
Sat 11:15:32 PM 34.2434 100.3579 61° Northeast  Level Estimated
Sat 11:16:32 PM 34.2981 100.4773 61° Northeast  Level Estimated
Sat 11:17:32 PM 34.3528 100.5968 61° Northeast  Level Estimated
Sat 11:18:32 PM 34.4073 100.7165 61° Northeast  Level Estimated
Sat 11:19:32 PM 34.4617 100.8363 61° Northeast  Level Estimated
Sat 11:20:32 PM 34.5160 100.9563 61° Northeast  Level Estimated
Sat 11:21:32 PM 34.5702 101.0765 61° Northeast  Level Estimated
Sat 11:22:32 PM 34.6242 101.1968 61° Northeast  Level Estimated
Sat 11:23:32 PM 34.6782 101.3172 61° Northeast  Level Estimated
Sat 11:24:32 PM 34.7320 101.4379 62° Northeast  Level Estimated
Sat 11:25:32 PM 34.7857 101.5586 62° Northeast  Level Estimated
Sat 11:26:32 PM 34.8393 101.6796 62° Northeast  Level Estimated
Sat 11:27:32 PM 34.8927 101.8007 62° Northeast  Level Estimated
Sat 11:28:32 PM 34.9461 101.9219 62° Northeast  Level Estimated
Sat 11:29:32 PM 34.9993 102.0433 62° Northeast  Level Estimated
Sat 11:30:32 PM 35.0524 102.1649 62° Northeast  Level Estimated
Sat 11:31:32 PM 35.1054 102.2866 62° Northeast  Level Estimated
Sat 11:32:32 PM 35.1582 102.4085 62° Northeast  Level Estimated
Sat 11:33:32 PM 35.2109 102.5305 62° Northeast  Level Estimated
Sat 11:34:32 PM 35.2636 102.6527 62° Northeast  Level Estimated
Sat 11:35:32 PM 35.3161 102.7751 62° Northeast  Level Estimated
Sat 11:36:32 PM 35.3684 102.8976 62° Northeast  Level Estimated
Sat 11:37:32 PM 35.4207 103.0203 62° Northeast  Level Estimated
Sat 11:38:32 PM 35.4728 103.1431 63° Northeast  Level Estimated
Sat 11:39:32 PM 35.5248 103.2661 63° Northeast  Level Estimated
Sat 11:40:32 PM 35.5766 103.3893 63° Northeast  Level Estimated
Sat 11:41:32 PM 35.6284 103.5126 63° Northeast  Level Estimated
Sat 11:42:32 PM 35.6800 103.6361 63° Northeast  Level Estimated
Sat 11:43:32 PM 35.7315 103.7597 63° Northeast  Level Estimated
Sat 11:44:32 PM 35.7828 103.8835 63° Northeast  Level Estimated
Sat 11:45:32 PM 35.8341 104.0074 63° Northeast  Level Estimated
Sat 11:46:32 PM 35.8852 104.1316 63° Northeast  Level Estimated
Sat 11:47:32 PM 35.9361 104.2558 63° Northeast  Level Estimated
Sat 11:48:32 PM 35.9870 104.3803 63° Northeast  Level Estimated
Sat 11:49:32 PM 36.0377 104.5049 63° Northeast  Level Estimated
Sat 11:50:32 PM 36.0883 104.6296 63° Northeast  Level Estimated
Sat 11:51:32 PM 36.1388 104.7545 63° Northeast  Level Estimated
Sat 11:52:32 PM 36.1891 104.8796 64° Northeast  Level Estimated
Sat 11:53:32 PM 36.2393 105.0048 64° Northeast  Level Estimated
Sat 11:54:32 PM 36.2894 105.1302 64° Northeast  Level Estimated
Sat 11:55:32 PM 36.3393 105.2558 64° Northeast  Level Estimated
Sat 11:56:32 PM 36.3891 105.3815 64° Northeast  Level Estimated
Sat 11:57:32 PM 36.4388 105.5073 64° Northeast  Level Estimated
Sat 11:58:32 PM 36.4884 105.6334 64° Northeast  Level Estimated
Sat 11:59:32 PM 36.5378 105.7596 64° Northeast  Level Estimated
Sun 12:00:32 AM 36.5871 105.8859 64° Northeast  Level Estimated
Sun 12:01:32 AM 36.6362 106.0125 64° Northeast  Level Estimated
Sun 12:02:32 AM 36.6852 106.1391 64° Northeast  Level Estimated
Sun 12:03:32 AM 36.7341 106.2660 64° Northeast  Level Estimated
Sun 12:04:32 AM 36.7828 106.3930 64° Northeast  Level Estimated
Sun 12:05:32 AM 36.8315 106.5202 65° Northeast  Level Estimated
Sun 12:06:32 AM 36.8799 106.6475 65° Northeast  Level Estimated
Sun 12:07:32 AM 36.9283 106.7750 65° Northeast  Level Estimated
Sun 12:08:32 AM 36.9765 106.9026 65° Northeast  Level Estimated
Sun 12:09:32 AM 37.0245 107.0304 65° Northeast  Level Estimated
Sun 12:10:32 AM 37.0724 107.1584 65° Northeast  Level Estimated
Sun 12:11:32 AM 37.1202 107.2866 65° Northeast  Level Estimated
Sun 12:12:32 AM 37.1679 107.4148 65° Northeast  Level Estimated
Sun 12:13:32 AM 37.2154 107.5433 65° Northeast  Level Estimated
Sun 12:14:32 AM 37.2628 107.6719 65° Northeast  Level Estimated
Sun 12:15:32 AM 37.3100 107.8007 65° Northeast  Level Estimated
Sun 12:16:32 AM 37.3571 107.9297 65° Northeast  Level Estimated
Sun 12:17:32 AM 37.4041 108.0588 65° Northeast  Level Estimated
Sun 12:18:32 AM 37.4509 108.1880 66° East  Level Estimated
Sun 12:19:32 AM 37.4975 108.3175 66° East  Level Estimated
Sun 12:20:32 AM 37.5441 108.4471 66° East  Level Estimated
Sun 12:21:32 AM 37.5905 108.5768 66° East  Level Estimated
Sun 12:22:32 AM 37.6367 108.7067 66° East  Level Estimated
Sun 12:23:32 AM 37.6828 108.8368 66° East  Level Estimated
Sun 12:24:32 AM 37.7288 108.9670 66° East  Level Estimated
Sun 12:25:32 AM 37.7746 109.0974 66° East  Level Estimated
Sun 12:26:32 AM 37.8203 109.2280 66° East  Level Estimated
Sun 12:27:32 AM 37.8658 109.3587 66° East  Level Estimated
Sun 12:28:32 AM 37.9112 109.4896 66° East  Level Estimated
Sun 12:29:32 AM 37.9564 109.6206 66° East  Level Estimated
Sun 12:30:32 AM 38.0015 109.7518 66° East  Level Estimated
Sun 12:31:32 AM 38.0465 109.8832 67° East  Level Estimated
Sun 12:32:32 AM 38.0913 110.0147 67° East  Level Estimated
Sun 12:33:32 AM 38.1359 110.1464 67° East  Level Estimated
Sun 12:34:32 AM 38.1805 110.2783 67° East  Level Estimated
Sun 12:35:32 AM 38.2248 110.4103 67° East  Level Estimated
Sun 12:36:32 AM 38.2690 110.5425 67° East  Level Estimated
Sun 12:37:32 AM 38.3131 110.6748 67° East  Level Estimated
Sun 12:38:32 AM 38.3570 110.8073 67° East  Level Estimated
Sun 12:39:32 AM 38.4008 110.9400 67° East  Level Estimated
Sun 12:40:32 AM 38.4444 111.0728 67° East  Level Estimated
Sun 12:41:32 AM 38.4879 111.2058 67° East  Level Estimated
Sun 12:42:32 AM 38.5312 111.3389 67° East  Level Estimated
Sun 12:43:32 AM 38.5743 111.4722 68° East  Level Estimated
Sun 12:44:32 AM 38.6174 111.6057 68° East  Level Estimated
Sun 12:45:32 AM 38.6602 111.7393 68° East  Level Estimated
Sun 12:46:32 AM 38.7029 111.8731 68° East  Level Estimated
Sun 12:47:32 AM 38.7455 112.0070 68° East  Level Estimated
Sun 12:48:32 AM 38.7879 112.1411 68° East  Level Estimated
Sun 12:49:32 AM 38.8302 112.2754 68° East  Level Estimated
Sun 12:50:32 AM 38.8722 112.4098 68° East  Level Estimated
Sun 12:51:32 AM 38.9142 112.5443 68° East  Level Estimated
Sun 12:52:32 AM 38.9560 112.6791 68° East  Level Estimated
Sun 12:53:32 AM 38.9976 112.8139 68° East  Level Estimated
Sun 12:54:32 AM 39.0391 112.9490 68° East  Level Estimated
Sun 12:55:32 AM 39.0804 113.0842 69° East  Level Estimated
Sun 12:56:32 AM 39.1216 113.2196 69° East  Level Estimated
Sun 12:57:32 AM 39.1626 113.3551 69° East  Level Estimated
Sun 12:58:32 AM 39.2034 113.4908 69° East  Level Estimated
Sun 12:59:32 AM 39.2441 113.6266 69° East  Level Estimated
Sun 01:00:32 AM 39.2847 113.7626 69° East  Level Estimated
Sun 01:01:32 AM 39.3251 113.8988 69° East  Level Estimated
Sun 01:02:32 AM 39.3653 114.0351 69° East  Level Estimated
Sun 01:03:32 AM 39.4053 114.1715 69° East  Level Estimated
Sun 01:04:32 AM 39.4452 114.3082 69° East  Level Estimated
Sun 01:05:32 AM 39.4850 114.4449 69° East  Level Estimated
Sun 01:06:32 AM 39.5246 114.5819 70° East  Level Estimated
Sun 01:07:32 AM 39.5640 114.7190 70° East  Level Estimated
Sun 01:08:32 AM 39.6032 114.8562 70° East  Level Estimated
Sun 01:09:32 AM 39.6423 114.9936 70° East  Level Estimated
Sun 01:10:32 AM 39.6813 115.1312 70° East  Level Estimated
Sun 01:11:32 AM 39.7200 115.2689 70° East  Level Estimated
Sun 01:12:32 AM 39.7587 115.4067 70° East  Level Estimated
Sun 01:13:32 AM 39.7971 115.5447 70° East  Level Estimated
Sun 01:14:32 AM 39.8354 115.6829 70° East  Level Estimated
Sun 01:15:32 AM 39.8735 115.8213 70° East  Level Estimated
Sun 01:16:32 AM 39.9114 115.9597 70° East  Level Estimated
Sun 01:17:32 AM 39.9492 116.0984 70° East  Level Estimated
Sun 01:18:32 AM 39.9869 116.2372 71° East  Level Estimated
Sun 01:19:32 AM 40.0243 116.3761 71° East  Level Estimated
Sun 01:20:32 AM 40.0616 116.5152 71° East  Level Estimated
Sun 01:21:32 AM 40.0987 116.6544 251° West  Level Estimated
Sun 01:22:32 AM 40.0616 116.5152 71° East  Level Estimated
Sun 01:23:32 AM 40.0987 116.6544 251° West  Level Estimated
Sun 01:24:32 AM 40.0616 116.5152 71° East  Level Estimated
Sun 01:25:32 AM 40.0987 116.6544 251° West  Level Estimated
Sun 01:26:32 AM 40.0616 116.5152 71° East  Level Estimated
Sun 01:27:32 AM 40.0987 116.6544 251° West  Level Estimated
Sun 01:28:32 AM 40.0616 116.5152 71° East  Level Estimated
Sun 01:29:32 AM 40.0987 116.6544 251° West  Level Estimated
Sun 01:30:32 AM 40.0616 116.5152 71° East  Level Estimated
Sun 01:31:32 AM 40.0987 116.6544 251° West  Level Estimated
Sun 01:32:32 AM 40.0616 116.5152 71° East  Level Estimated
Sun 01:33:32 AM 40.0987 116.6544 251° West  Level Estimated
Sun 01:34:32 AM 40.0616 116.5152 251° West  Level Estimated

Login

Don't have an account? Register now (free) for customized features, flight alerts, and more!